Time;durP1;ratioP1;P1;durP2;ratioP2;P2;SDS_P1;SDS_P2;PMS_P1;PMS_P2;Temp;Humidity;BMP_temperature;BMP_pressure;BME280_temperature;BME280_humidity;BME280_pressure;Samples;Min_cycle;Max_cycle;Signal;HPM_P1;HPM_P2
2023/03/10 00:01:26;;;;;;;26.42;11.60;;;2.10;99.90;;;;;;5011896;28;20104;-77
2023/03/10 00:03:55;;;;;;;26.45;11.02;;;1.10;99.90;;;;;;5028541;28;20076;-77
2023/03/10 00:06:23;;;;;;;29.35;12.82;;;1.10;99.90;;;;;;5028474;28;20041;-76
2023/03/10 00:08:49;;;;;;;26.10;11.02;;;1.10;99.90;;;;;;5009229;28;20033;-76
2023/03/10 00:11:15;;;;;;;;;;;1.90;99.90;;;;;;5029200;28;20624;-77
2023/03/10 00:13:41;;;;;;;27.70;12.13;;;1.70;99.90;;;;;;5028226;28;20278;-77
2023/03/10 00:16:10;;;;;;;32.08;12.95;;;1.10;99.90;;;;;;5011872;28;20140;-77
2023/03/10 00:18:36;;;;;;;33.10;14.90;;;1.10;99.90;;;;;;5028240;28;20092;-76
2023/03/10 00:21:01;;;;;;;31.98;12.73;;;1.60;99.90;;;;;;5029541;28;20065;-76
2023/03/10 00:23:27;;;;;;;33.13;14.00;;;1.20;99.90;;;;;;5031906;28;20060;-77
2023/03/10 00:25:57;;;;;;;27.77;12.02;;;1.00;99.90;;;;;;5015752;28;20071;-76
2023/03/10 00:28:25;;;;;;;32.10;13.00;;;1.00;99.90;;;;;;5032253;28;20040;-77
2023/03/10 00:31:18;;;;;;;30.33;13.00;;;1.70;99.90;;;;;;5015337;28;20052;-77
2023/03/10 00:33:44;;;;;;;26.30;10.98;;;1.10;99.90;;;;;;5026576;28;20050;-77
2023/03/10 00:36:12;;;;;;;33.13;13.75;;;1.00;99.90;;;;;;5015952;28;20053;-76
2023/03/10 00:38:39;;;;;;;30.08;12.20;;;1.10;99.90;;;;;;5015251;28;20041;-76
2023/03/10 00:41:12;;;;;;;25.08;11.52;;;1.10;99.90;;;;;;5032134;28;20112;-77
2023/03/10 00:43:37;;;;;;;30.48;11.70;;;1.10;99.90;;;;;;5031612;28;20485;-77
2023/03/10 00:46:04;;;;;;;31.38;11.82;;;1.50;99.90;;;;;;5031982;28;20086;-77
2023/03/10 00:48:30;;;;;;;32.15;13.25;;;1.10;99.90;;;;;;5015484;28;20351;-77
2023/03/10 00:50:56;;;;;;;28.25;13.23;;;2.30;99.90;;;;;;5015609;28;20037;-77
2023/03/10 00:53:22;;;;;;;29.98;13.40;;;1.80;99.90;;;;;;5031637;28;20127;-77
2023/03/10 00:56:01;;;;;;;30.80;13.27;;;1.90;99.90;;;;;;5031422;28;20034;-77
2023/03/10 00:58:28;;;;;;;37.90;14.85;;;2.00;99.90;;;;;;5030248;28;20055;-76
2023/03/10 01:00:54;;;;;;;34.80;14.10;;;1.20;99.90;;;;;;5031011;28;20046;-77
2023/03/10 01:03:20;;;;;;;34.97;14.57;;;2.80;99.90;;;;;;5031451;28;20033;-77
2023/03/10 01:05:47;;;;;;;;;;;1.20;99.90;;;;;;5032006;28;20026;-76
2023/03/10 01:08:12;;;;;;;37.13;15.48;;;1.20;99.90;;;;;;5031444;28;19925;-77
2023/03/10 01:10:38;;;;;;;35.83;14.40;;;1.20;99.90;;;;;;5014808;28;20366;-76
2023/03/10 01:13:04;;;;;;;32.50;16.27;;;2.20;99.90;;;;;;5031377;28;20672;-77
2023/03/10 01:15:29;;;;;;;28.33;12.25;;;1.30;99.90;;;;;;5014858;28;20034;-77
2023/03/10 01:17:55;;;;;;;23.43;11.20;;;1.30;99.90;;;;;;5014602;28;20454;-76
2023/03/10 01:20:20;;;;;;;25.08;10.70;;;1.30;99.90;;;;;;5031341;28;20280;-76
2023/03/10 01:22:46;;;;;;;28.13;13.80;;;2.30;99.90;;;;;;5014207;28;20548;-76
2023/03/10 01:25:14;;;;;;;22.47;10.87;;;1.30;99.90;;;;;;5015049;28;20323;-76
2023/03/10 01:27:41;;;;;;;21.25;10.55;;;1.30;99.90;;;;;;5030748;28;20363;-77
2023/03/10 01:30:08;;;;;;;18.65;9.55;;;1.30;99.90;;;;;;5031420;28;20045;-76
2023/03/10 01:32:35;;;;;;;23.52;10.18;;;1.30;99.90;;;;;;5029799;28;20052;-76
2023/03/10 01:35:02;;;;;;;18.60;8.48;;;1.30;99.90;;;;;;5029311;28;20355;-77
2023/03/10 01:37:27;;;;;;;18.77;8.75;;;1.40;99.90;;;;;;5031201;28;20038;-75
2023/03/10 01:39:53;;;;;;;18.70;8.83;;;1.30;99.90;;;;;;5013851;28;20124;-77
2023/03/10 01:42:19;;;;;;;19.93;9.57;;;1.40;99.90;;;;;;5031044;28;20760;-77
2023/03/10 01:45:03;;;;;;;20.48;10.90;;;1.40;99.90;;;;;;5030501;28;20295;-77
2023/03/10 01:47:28;;;;;;;19.25;8.82;;;1.40;99.90;;;;;;5013347;28;20095;-77
2023/03/10 01:49:55;;;;;;;18.75;8.85;;;1.40;99.90;;;;;;5030363;28;20081;-77
2023/03/10 01:52:24;;;;;;;18.92;7.75;;;2.30;99.90;;;;;;5030915;28;20456;-76
2023/03/10 01:55:10;;;;;;;17.67;8.50;;;1.40;99.90;;;;;;5030480;28;20042;-77
2023/03/10 01:57:43;;;;;;;14.60;7.53;;;1.40;99.90;;;;;;5030849;28;20085;-77
2023/03/10 02:00:13;;;;;;;17.65;9.27;;;1.40;99.90;;;;;;5013988;28;20465;-78
2023/03/10 02:02:55;;;;;;;15.60;7.38;;;1.40;99.90;;;;;;5028370;28;20056;-77
2023/03/10 02:05:22;;;;;;;16.15;7.03;;;1.40;99.90;;;;;;5043247;28;20080;-76
2023/03/10 02:07:47;;;;;;;17.30;8.32;;;1.70;99.90;;;;;;5030143;28;20041;-77
2023/03/10 02:10:14;;;;;;;17.35;7.38;;;2.40;99.90;;;;;;5030300;28;20046;-76
2023/03/10 02:12:42;;;;;;;17.38;7.50;;;1.40;99.90;;;;;;5029998;28;20040;-76
2023/03/10 02:15:09;;;;;;;17.08;8.57;;;1.50;99.90;;;;;;5013962;28;20061;-77
2023/03/10 02:17:36;;;;;;;16.05;7.85;;;1.50;99.90;;;;;;5014037;28;20041;-76
2023/03/10 02:20:27;;;;;;;16.80;8.00;;;1.50;99.90;;;;;;5013605;28;20045;-76
2023/03/10 02:22:53;;;;;;;15.95;8.27;;;1.50;99.90;;;;;;5029854;28;20056;-77
2023/03/10 02:26:01;;;;;;;14.35;7.15;;;1.50;99.90;;;;;;5013557;28;20041;-77
2023/03/10 02:28:27;;;;;;;17.88;8.25;;;1.50;99.90;;;;;;5008697;28;20061;-76
2023/03/10 02:30:53;;;;;;;14.87;7.20;;;1.60;99.90;;;;;;5029506;28;20405;-77
2023/03/10 02:33:21;;;;;;;;;;;1.50;99.90;;;;;;5030475;28;20350;-77
2023/03/10 02:35:47;;;;;;;17.92;7.97;;;1.50;99.90;;;;;;5030034;28;19940;-76
2023/03/10 02:38:13;;;;;;;16.02;7.88;;;2.10;99.90;;;;;;5030101;28;20033;-77
2023/03/10 02:40:50;;;;;;;18.92;7.95;;;1.50;99.90;;;;;;5030501;28;20385;-77
2023/03/10 02:43:21;;;;;;;16.98;9.45;;;1.50;99.90;;;;;;5029902;28;20120;-76
2023/03/10 02:45:49;;;;;;;17.13;7.57;;;1.50;99.90;;;;;;5029659;28;20395;-76
2023/03/10 02:48:24;;;;;;;17.65;9.02;;;1.50;99.90;;;;;;5029301;28;20041;-77
2023/03/10 02:50:52;;;;;;;21.52;9.27;;;1.50;99.90;;;;;;5028667;28;20037;-77
2023/03/10 02:53:21;;;;;;;21.05;9.20;;;1.50;99.90;;;;;;5012189;28;20104;-76
2023/03/10 02:55:47;;;;;;;20.85;9.10;;;1.50;99.90;;;;;;5026097;28;20176;-76
2023/03/10 02:58:13;;;;;;;18.10;8.18;;;1.50;99.90;;;;;;5029220;28;20136;-76
2023/03/10 03:00:40;;;;;;;24.10;9.45;;;1.50;99.90;;;;;;5029568;28;20053;-76
2023/03/10 03:03:07;;;;;;;19.90;9.43;;;1.50;99.90;;;;;;5028987;28;20045;-76
2023/03/10 03:05:33;;;;;;;23.52;10.90;;;1.40;99.90;;;;;;5012888;28;20045;-76
2023/03/10 03:07:59;;;;;;;22.77;10.05;;;1.40;99.90;;;;;;5028959;28;20056;-76
2023/03/10 03:10:25;;;;;;;25.13;10.13;;;1.40;99.90;;;;;;5028987;28;20037;-76
2023/03/10 03:12:50;;;;;;;20.90;9.40;;;1.30;99.90;;;;;;5012242;28;20296;-76
2023/03/10 03:15:17;;;;;;;25.27;10.32;;;1.30;99.90;;;;;;5013179;28;20303;-76
2023/03/10 03:17:43;;;;;;;25.25;10.10;;;1.30;99.90;;;;;;5012529;28;20041;-76
2023/03/10 03:20:13;;;;;;;23.88;10.73;;;1.30;99.90;;;;;;5029032;28;20048;-76
2023/03/10 03:22:44;;;;;;;27.83;11.40;;;1.30;99.90;;;;;;5029159;28;20037;-76
2023/03/10 03:25:12;;;;;;;27.83;11.13;;;1.30;99.90;;;;;;5012707;28;20052;-76
2023/03/10 03:27:38;;;;;;;22.67;9.90;;;1.30;99.90;;;;;;5029009;28;20034;-76
2023/03/10 03:30:06;;;;;;;26.83;11.20;;;1.30;99.90;;;;;;5028346;28;20080;-76
2023/03/10 03:32:33;;;;;;;28.02;12.60;;;1.30;99.90;;;;;;5028745;28;20470;-77
2023/03/10 03:34:59;;;;;;;25.15;10.57;;;1.30;99.90;;;;;;5028417;28;20133;-76
2023/03/10 03:37:25;;;;;;;28.95;12.10;;;1.30;99.90;;;;;;5012281;28;20405;-76
2023/03/10 03:39:51;;;;;;;25.20;10.77;;;1.20;99.90;;;;;;5025919;28;20076;-76
2023/03/10 03:42:16;;;;;;;31.17;12.25;;;1.30;99.90;;;;;;5012722;28;20118;-76
2023/03/10 03:44:42;;;;;;;28.58;12.75;;;1.20;99.90;;;;;;5028816;28;20045;-76
2023/03/10 03:47:09;;;;;;;31.98;12.50;;;1.20;99.90;;;;;;5011923;28;20041;-76
2023/03/10 03:49:36;;;;;;;29.90;12.25;;;1.20;99.90;;;;;;4993927;28;20104;-76
2023/03/10 03:52:03;;;;;;;27.88;12.27;;;1.20;99.90;;;;;;5028088;28;20057;-76
2023/03/10 03:54:28;;;;;;;30.92;12.52;;;1.20;99.90;;;;;;5028429;28;20048;-76
2023/03/10 03:56:54;;;;;;;29.08;12.10;;;1.20;99.90;;;;;;5013897;28;20041;-76
2023/03/10 03:59:20;;;;;;;34.88;13.98;;;1.30;99.90;;;;;;5016053;28;20049;-76
2023/03/10 04:01:46;;;;;;;30.20;12.98;;;2.20;99.90;;;;;;5013729;28;20053;-76
2023/03/10 04:04:11;;;;;;;34.97;13.17;;;3.00;99.90;;;;;;5032267;28;20064;-76
2023/03/10 04:06:37;;;;;;;30.47;13.10;;;1.40;99.90;;;;;;5016260;28;20284;-76
2023/03/10 04:09:03;;;;;;;28.75;12.00;;;1.30;99.90;;;;;;5032304;28;20284;-76
2023/03/10 04:11:29;;;;;;;30.10;13.13;;;1.30;99.90;;;;;;5032508;28;20125;-76
2023/03/10 04:13:55;;;;;;;28.65;11.88;;;1.30;99.90;;;;;;5031892;28;20111;-76
2023/03/10 04:16:20;;;;;;;31.13;12.57;;;1.40;99.90;;;;;;5032736;28;20049;-76
2023/03/10 04:18:46;;;;;;;29.93;12.37;;;1.30;99.90;;;;;;5032290;28;20280;-76
2023/03/10 04:21:12;;;;;;;33.60;13.50;;;1.80;99.90;;;;;;5031888;28;20559;-77
2023/03/10 04:23:40;;;;;;;28.02;12.75;;;1.30;99.90;;;;;;5015742;28;20474;-76
2023/03/10 04:26:09;;;;;;;29.23;12.07;;;1.30;99.90;;;;;;5015153;28;20073;-76
2023/03/10 04:28:36;;;;;;;31.38;14.40;;;1.30;99.90;;;;;;5032176;28;20064;-76
2023/03/10 04:31:02;;;;;;;29.30;14.00;;;1.30;99.90;;;;;;5031954;28;20037;-76
2023/03/10 04:33:28;;;;;;;27.58;12.25;;;1.30;99.90;;;;;;5015650;28;20046;-76
2023/03/10 04:35:54;;;;;;;29.05;12.63;;;1.30;99.90;;;;;;5015128;28;20037;-76
2023/03/10 04:38:22;;;;;;;32.70;13.02;;;1.30;99.90;;;;;;5032058;28;20073;-76
2023/03/10 04:40:55;;;;;;;36.22;14.05;;;1.20;99.90;;;;;;5015602;28;20445;-76
2023/03/10 04:43:21;;;;;;;32.20;12.35;;;1.20;99.90;;;;;;5031810;28;20136;-76
2023/03/10 04:45:50;;;;;;;36.95;13.45;;;1.20;99.90;;;;;;5031938;28;20124;-76
2023/03/10 04:48:15;;;;;;;36.65;13.82;;;1.10;99.90;;;;;;5031779;28;20462;-76
2023/03/10 04:50:41;;;;;;;36.42;13.80;;;1.10;99.90;;;;;;5031918;28;20073;-76
2023/03/10 04:53:07;;;;;;;33.33;13.00;;;1.10;99.90;;;;;;5031094;28;20044;-76
2023/03/10 04:55:33;;;;;;;36.73;15.50;;;1.10;99.90;;;;;;5015226;28;20100;-76
2023/03/10 04:57:58;;;;;;;34.38;13.30;;;1.00;99.90;;;;;;5031521;28;20280;-76
2023/03/10 05:00:24;;;;;;;35.25;15.07;;;1.00;99.90;;;;;;5031268;28;20049;-76
2023/03/10 05:02:50;;;;;;;34.25;14.35;;;1.00;99.90;;;;;;4999206;28;20126;-76
2023/03/10 05:05:16;;;;;;;36.60;13.93;;;1.50;99.90;;;;;;5031043;28;20095;-76
2023/03/10 05:07:42;;;;;;;42.22;14.48;;;1.40;99.90;;;;;;5015068;28;20370;-76
2023/03/10 05:10:09;;;;;;;43.15;15.73;;;1.00;99.90;;;;;;5014893;28;20081;-75
2023/03/10 05:12:36;;;;;;;38.75;13.75;;;1.00;99.90;;;;;;5031705;28;20069;-75
2023/03/10 05:15:03;;;;;;;41.30;16.00;;;1.30;99.90;;;;;;5031327;28;20098;-75
2023/03/10 05:17:29;;;;;;;42.53;16.15;;;1.00;99.90;;;;;;4998834;28;20045;-76
2023/03/10 05:19:56;;;;;;;38.60;14.60;;;1.00;99.90;;;;;;5031538;28;20355;-76
2023/03/10 05:22:22;;;;;;;43.28;16.42;;;1.20;99.90;;;;;;5015419;28;20056;-75
2023/03/10 05:24:48;;;;;;;44.58;16.13;;;1.20;99.90;;;;;;5031961;28;20037;-75
2023/03/10 05:27:17;;;;;;;50.33;17.75;;;0.90;99.90;;;;;;5031365;28;20386;-76
2023/03/10 05:29:43;;;;;;;50.13;17.70;;;1.80;99.90;;;;;;5014877;28;20044;-74
2023/03/10 05:32:09;;;;;;;51.65;18.10;;;1.70;99.90;;;;;;5014398;28;20124;-75
2023/03/10 05:34:34;;;;;;;56.83;19.77;;;0.90;99.90;;;;;;5028799;28;20445;-74
2023/03/10 05:37:00;;;;;;;58.58;18.85;;;0.90;99.90;;;;;;5030751;28;20046;-75
2023/03/10 05:39:26;;;;;;;67.32;22.42;;;0.90;99.90;;;;;;5014647;28;20045;-75
2023/03/10 05:41:51;;;;;;;51.70;18.10;;;0.80;99.90;;;;;;5031380;28;20045;-75
2023/03/10 05:44:17;;;;;;;58.15;20.55;;;1.00;99.90;;;;;;5030947;28;20469;-75
2023/03/10 05:46:43;;;;;;;66.05;23.58;;;0.80;99.90;;;;;;5030993;28;20038;-75
2023/03/10 05:49:09;;;;;;;65.38;22.52;;;1.50;99.90;;;;;;5030871;28;20079;-75
2023/03/10 05:51:34;;;;;;;63.10;22.52;;;0.80;99.90;;;;;;5014232;28;20080;-74
2023/03/10 05:54:00;;;;;;;58.42;20.05;;;1.10;99.90;;;;;;5030374;28;20100;-75
2023/03/10 05:56:26;;;;;;;54.73;19.07;;;0.80;99.90;;;;;;5030862;28;20072;-75
2023/03/10 05:58:51;;;;;;;58.00;21.65;;;0.80;99.90;;;;;;5030838;28;20053;-75
2023/03/10 06:01:17;;;;;;;56.85;20.30;;;0.80;99.90;;;;;;5014219;28;20107;-75
2023/03/10 06:03:43;;;;;;;60.80;20.80;;;2.20;99.90;;;;;;5030596;28;20041;-75
2023/03/10 06:06:10;;;;;;;50.75;16.95;;;2.10;99.90;;;;;;5029833;28;20116;-76
2023/03/10 06:08:36;;;;;;;54.40;19.75;;;0.90;99.90;;;;;;5013739;28;20029;-75
2023/03/10 06:11:03;;;;;;;51.88;16.67;;;1.00;99.90;;;;;;5013917;28;20049;-75
2023/03/10 06:13:30;;;;;;;55.85;18.35;;;0.70;99.90;;;;;;5014597;28;20387;-75
2023/03/10 06:15:57;;;;;;;;;;;2.10;99.90;;;;;;5028644;28;20116;-75
2023/03/10 06:18:23;;;;;;;46.25;16.42;;;1.40;99.90;;;;;;5029743;28;19921;-75
2023/03/10 06:20:49;;;;;;;62.40;26.02;;;1.30;99.90;;;;;;5030401;28;20099;-75
2023/03/10 06:23:16;;;;;;;46.17;17.63;;;2.00;99.90;;;;;;5030065;28;20056;-76
2023/03/10 06:25:42;;;;;;;47.38;20.10;;;0.70;99.90;;;;;;5030348;28;20132;-75
2023/03/10 06:28:09;;;;;;;50.13;20.08;;;0.70;99.90;;;;;;5030012;28;20120;-75
2023/03/10 06:30:35;;;;;;;57.85;24.75;;;0.90;99.90;;;;;;5030286;28;20048;-75
2023/03/10 06:33:01;;;;;;;49.88;15.57;;;0.70;99.90;;;;;;5013813;28;20490;-75
2023/03/10 06:35:27;;;;;;;41.63;16.75;;;1.60;99.90;;;;;;5029833;28;20037;-75
2023/03/10 06:37:53;;;;;;;40.45;14.13;;;0.70;99.90;;;;;;5030121;28;20048;-75
2023/03/10 06:40:19;;;;;;;42.50;14.45;;;0.60;99.90;;;;;;5029744;28;20565;-75
2023/03/10 06:42:45;;;;;;;39.03;13.90;;;0.60;99.90;;;;;;5029927;28;20077;-76
2023/03/10 06:45:15;;;;;;;42.40;14.27;;;1.60;99.90;;;;;;5013522;28;20127;-74
2023/03/10 06:47:41;;;;;;;33.67;12.77;;;1.50;99.90;;;;;;5013435;28;20049;-74
2023/03/10 06:50:08;;;;;;;43.85;15.60;;;0.60;99.90;;;;;;5030061;28;20181;-75
2023/03/10 06:52:34;;;;;;;38.75;13.43;;;0.70;99.90;;;;;;5013509;28;20096;-75
2023/03/10 06:55:00;;;;;;;41.20;13.65;;;0.60;99.90;;;;;;5029953;28;20049;-75
2023/03/10 06:57:27;;;;;;;40.53;13.32;;;0.60;99.90;;;;;;4996341;28;20037;-76
2023/03/10 06:59:53;;;;;;;38.20;13.57;;;1.50;99.90;;;;;;5013136;28;20095;-75
2023/03/10 07:02:20;;;;;;;32.20;12.95;;;2.00;99.90;;;;;;5013425;28;20065;-75
2023/03/10 07:04:46;;;;;;;36.13;13.52;;;0.60;99.90;;;;;;5030217;28;20425;-75
2023/03/10 07:07:13;;;;;;;38.13;14.05;;;0.70;99.90;;;;;;4996852;28;20124;-75
2023/03/10 07:09:39;;;;;;;41.38;16.38;;;0.60;99.90;;;;;;5029735;28;20111;-75
2023/03/10 07:12:05;;;;;;;37.13;13.13;;;2.00;99.90;;;;;;5013408;28;20041;-74
2023/03/10 07:14:31;;;;;;;41.40;12.60;;;0.70;99.90;;;;;;5029531;28;20124;-74
2023/03/10 07:16:57;;;;;;;42.75;13.98;;;0.70;99.90;;;;;;5013078;28;20446;-74
2023/03/10 07:19:24;;;;;;;39.45;13.18;;;0.80;99.90;;;;;;5012870;28;20037;-74
2023/03/10 07:21:50;;;;;;;39.63;14.00;;;0.80;99.90;;;;;;5029552;28;20057;-74
2023/03/10 07:24:16;;;;;;;40.97;15.00;;;0.80;99.90;;;;;;5029045;28;20041;-74
2023/03/10 07:26:42;;;;;;;35.67;12.80;;;0.80;99.90;;;;;;5029511;28;20041;-74
2023/03/10 07:29:08;;;;;;;39.60;14.68;;;0.80;99.90;;;;;;4996596;28;20045;-74
2023/03/10 07:31:35;;;;;;;35.00;11.93;;;0.80;99.90;;;;;;5028243;28;20481;-74
2023/03/10 07:34:01;;;;;;;34.53;13.35;;;1.20;99.90;;;;;;4996435;28;20253;-74
2023/03/10 07:36:28;;;;;;;35.90;12.30;;;1.20;99.90;;;;;;5029209;28;20104;-74
2023/03/10 07:38:54;;;;;;;35.08;12.48;;;0.90;99.90;;;;;;5029220;28;20149;-74
2023/03/10 07:41:20;;;;;;;;;;;0.90;99.90;;;;;;5029147;28;20056;-74
2023/03/10 07:43:49;;;;;;;41.63;16.20;;;0.90;99.90;;;;;;5028759;28;19932;-74
2023/03/10 07:46:15;;;;;;;36.75;14.07;;;0.90;99.90;;;;;;5028940;28;20486;-75
2023/03/10 07:48:41;;;;;;;39.95;16.95;;;1.00;99.90;;;;;;5029018;28;20270;-76
2023/03/10 07:51:07;;;;;;;36.85;14.75;;;0.90;99.90;;;;;;4997567;28;20390;-76
2023/03/10 07:53:33;;;;;;;44.15;15.73;;;0.90;99.90;;;;;;5010341;28;20081;-75
2023/03/10 07:56:03;;;;;;;39.83;15.20;;;0.90;99.90;;;;;;5012684;28;20041;-76
2023/03/10 07:58:29;;;;;;;43.83;15.52;;;2.10;99.90;;;;;;5026806;28;20088;-75
2023/03/10 08:00:56;;;;;;;44.88;17.45;;;0.90;99.90;;;;;;5029003;28;20049;-75
2023/03/10 08:03:23;;;;;;;38.13;14.77;;;0.90;99.90;;;;;;5028500;28;20045;-75
2023/03/10 08:05:49;;;;;;;42.53;17.40;;;0.90;99.90;;;;;;5029012;28;20057;-76
2023/03/10 08:08:14;;;;;;;40.13;16.40;;;2.20;99.90;;;;;;5028439;28;20037;-76
2023/03/10 08:10:40;;;;;;;40.53;17.63;;;0.90;99.90;;;;;;5028620;28;20041;-75
2023/03/10 08:13:06;;;;;;;38.55;14.68;;;0.90;99.90;;;;;;5028210;28;20380;-76
2023/03/10 08:15:32;;;;;;;38.10;14.50;;;0.80;99.90;;;;;;5028396;28;20545;-75
2023/03/10 08:17:58;;;;;;;36.90;14.70;;;0.90;99.90;;;;;;5029022;28;20393;-76
2023/03/10 08:20:24;;;;;;;;;;;0.90;99.90;;;;;;4996477;28;20049;-75
2023/03/10 08:22:52;;;;;;;36.53;14.98;;;1.30;99.90;;;;;;5012699;28;19917;-75
2023/03/10 08:25:18;;;;;;;41.17;16.55;;;1.10;99.90;;;;;;5011916;28;20049;-75
2023/03/10 08:27:43;;;;;;;35.40;15.27;;;1.10;99.90;;;;;;5012200;28;20120;-78
2023/03/10 08:30:10;;;;;;;37.58;13.57;;;0.90;99.90;;;;;;4995735;28;20046;-76
2023/03/10 08:32:35;;;;;;;37.00;14.32;;;0.90;99.90;;;;;;4995835;28;20360;-76
2023/03/10 08:35:03;;;;;;;38.50;15.80;;;1.40;99.90;;;;;;5029210;28;20128;-77
2023/03/10 08:37:29;;;;;;;39.13;16.50;;;1.00;99.90;;;;;;5012843;28;20046;-77
2023/03/10 08:39:57;;;;;;;39.45;15.57;;;1.00;99.90;;;;;;5028545;28;20037;-77
2023/03/10 08:42:23;;;;;;;35.47;15.52;;;1.00;99.90;;;;;;5029736;28;20045;-76
2023/03/10 08:44:49;;;;;;;35.85;13.68;;;2.00;99.90;;;;;;5032869;28;20482;-76
2023/03/10 08:47:14;;;;;;;38.25;13.90;;;1.00;99.90;;;;;;5032497;28;20045;-76
2023/03/10 08:49:40;;;;;;;31.65;12.75;;;1.90;99.90;;;;;;5032346;28;20033;-77
2023/03/10 08:52:08;;;;;;;37.47;14.05;;;1.10;99.90;;;;;;5032340;28;20033;-77
2023/03/10 08:54:33;;;;;;;34.97;13.57;;;1.10;99.90;;;;;;5033098;28;20056;-77
2023/03/10 08:56:59;;;;;;;33.85;12.98;;;2.10;99.90;;;;;;5033041;28;20045;-77
2023/03/10 08:59:25;;;;;;;41.60;15.13;;;1.10;99.90;;;;;;5029452;28;20424;-76
2023/03/10 09:01:51;;;;;;;41.78;19.75;;;1.30;99.90;;;;;;5015943;28;20129;-76
2023/03/10 09:04:17;;;;;;;34.50;12.80;;;1.00;99.90;;;;;;5032150;28;20124;-76
2023/03/10 09:06:43;;;;;;;27.77;11.82;;;1.00;99.90;;;;;;4999219;28;20176;-76
2023/03/10 09:09:10;;;;;;;36.53;14.15;;;1.00;99.90;;;;;;5032247;28;20037;-76
2023/03/10 09:11:39;;;;;;;35.28;14.40;;;1.10;99.90;;;;;;5031681;28;20056;-76
2023/03/10 09:14:05;;;;;;;35.92;14.23;;;1.10;99.90;;;;;;5031776;28;20045;-76
2023/03/10 09:16:31;;;;;;;;;;;1.10;99.90;;;;;;5032129;28;20641;-76
2023/03/10 09:18:57;;;;;;;32.58;13.25;;;1.10;99.90;;;;;;5015263;28;19964;-76
2023/03/10 09:21:24;;;;;;;36.00;14.90;;;1.10;99.90;;;;;;5031394;28;20112;-76
2023/03/10 09:23:51;;;;;;;;;;;2.40;99.90;;;;;;5032307;28;20371;-76
2023/03/10 09:26:17;;;;;;;32.08;12.80;;;1.10;99.90;;;;;;5014998;28;19917;-76
2023/03/10 09:28:43;;;;;;;38.00;18.05;;;1.10;99.90;;;;;;5031005;28;20485;-76
2023/03/10 09:31:19;;;;;;;30.02;13.50;;;1.10;99.90;;;;;;5031328;28;20033;-76
2023/03/10 09:33:46;;;;;;;30.80;12.60;;;1.10;99.90;;;;;;5032120;28;20037;-77
2023/03/10 09:36:11;;;;;;;35.38;13.65;;;1.10;99.90;;;;;;5032747;28;20053;-76
2023/03/10 09:38:37;;;;;;;37.63;14.70;;;2.10;99.90;;;;;;5014893;28;20041;-76
2023/03/10 09:41:28;;;;;;;35.72;14.23;;;2.20;99.90;;;;;;5015336;28;20053;-76
2023/03/10 09:44:03;;;;;;;36.33;15.98;;;1.10;99.90;;;;;;5011534;28;20390;-77
2023/03/10 09:47:06;;;;;;;32.80;15.30;;;1.10;99.90;;;;;;5030655;28;20098;-78
2023/03/10 09:49:41;;;;;;;33.58;14.18;;;1.10;99.90;;;;;;5029018;28;20067;-77
2023/03/10 09:52:32;;;;;;;32.00;12.55;;;1.20;99.90;;;;;;5014313;28;20037;-75
2023/03/10 09:55:05;;;;;;;32.13;13.45;;;1.20;99.90;;;;;;5029554;28;20041;-75
2023/03/10 09:57:32;;;;;;;31.40;12.45;;;2.50;99.90;;;;;;5030804;28;20033;-77
2023/03/10 10:00:04;;;;;;;32.90;13.35;;;1.30;99.90;;;;;;5030699;28;20045;-77
2023/03/10 10:02:35;;;;;;;32.40;13.45;;;1.10;99.90;;;;;;5030527;28;20049;-76
2023/03/10 10:05:09;;;;;;;32.85;15.55;;;1.20;99.90;;;;;;5028523;28;20167;-78
2023/03/10 10:07:53;;;;;;;30.42;13.73;;;1.20;99.90;;;;;;5014318;28;20077;-76
2023/03/10 10:10:24;;;;;;;55.58;22.35;;;1.10;99.90;;;;;;5030469;28;20037;-77
2023/03/10 10:12:53;;;;;;;24.67;10.15;;;1.20;99.90;;;;;;5014031;28;20049;-76
2023/03/10 10:15:22;;;;;;;34.08;15.18;;;1.50;99.90;;;;;;5029749;28;20037;-76
2023/03/10 10:18:31;;;;;;;31.42;13.23;;;1.10;99.90;;;;;;5028913;28;20045;-77
2023/03/10 10:21:01;;;;;;;33.35;12.10;;;1.20;99.90;;;;;;5044272;28;20037;-76
2023/03/10 10:23:29;;;;;;;27.10;11.45;;;1.40;99.90;;;;;;5029248;28;20046;-77
2023/03/10 10:25:59;;;;;;;26.33;12.23;;;1.20;99.90;;;;;;5029137;28;20045;-76
2023/03/10 10:28:41;;;;;;;27.98;13.68;;;1.80;99.90;;;;;;5029311;28;20045;-76
2023/03/10 10:31:14;;;;;;;30.23;13.43;;;1.20;99.90;;;;;;5028967;28;20033;-76
2023/03/10 10:34:17;;;;;;;30.63;13.18;;;1.10;99.90;;;;;;5012056;28;20036;-76
2023/03/10 10:36:50;;;;;;;33.67;13.10;;;1.20;99.90;;;;;;5027453;28;20533;-76
2023/03/10 10:39:31;;;;;;;28.33;12.73;;;1.30;99.90;;;;;;5030108;28;20037;-76
2023/03/10 10:42:23;;;;;;;30.58;11.98;;;1.20;99.90;;;;;;5030186;28;20060;-76
2023/03/10 10:45:29;;;;;;;33.28;14.10;;;1.20;99.90;;;;;;5060082;28;20493;-76
2023/03/10 10:47:54;;;;;;;30.00;12.38;;;1.10;99.90;;;;;;5013014;28;20056;-77
2023/03/10 10:50:29;;;;;;;31.75;12.98;;;2.00;99.90;;;;;;5028759;28;20033;-76
2023/03/10 10:53:15;;;;;;;29.48;12.27;;;1.10;99.90;;;;;;5012015;28;20049;-76
2023/03/10 10:55:44;;;;;;;28.35;12.60;;;1.10;99.90;;;;;;5027059;28;20037;-76
2023/03/10 10:58:34;;;;;;;31.30;12.40;;;2.30;99.90;;;;;;5028747;28;20556;-75
2023/03/10 11:01:03;;;;;;;27.92;11.82;;;1.10;99.90;;;;;;5028357;28;20080;-75
2023/03/10 11:03:29;;;;;;;30.83;13.20;;;1.10;99.90;;;;;;5028443;28;20036;-77
2023/03/10 11:05:55;;;;;;;32.42;12.63;;;1.60;99.90;;;;;;5028226;28;20413;-77
2023/03/10 11:08:38;;;;;;;31.65;13.68;;;1.10;99.90;;;;;;5030627;28;20620;-77
2023/03/10 11:11:03;;;;;;;30.30;12.55;;;1.20;99.90;;;;;;5028078;28;20049;-77
2023/03/10 11:14:17;;;;;;;31.70;13.53;;;1.20;99.90;;;;;;5028194;28;20115;-76
2023/03/10 11:17:16;;;;;;;30.48;12.20;;;1.20;99.90;;;;;;5009300;28;20055;-77
2023/03/10 11:20:22;;;;;;;31.50;12.55;;;1.20;99.90;;;;;;5027252;28;20048;-77
2023/03/10 11:23:02;;;;;;;33.33;12.93;;;1.20;99.90;;;;;;4969685;28;20121;-77
2023/03/10 11:25:53;;;;;;;31.58;12.73;;;1.20;99.90;;;;;;5022387;28;20551;-76
2023/03/10 11:28:50;;;;;;;33.55;15.52;;;1.20;99.90;;;;;;5027335;28;20037;-77
2023/03/10 11:31:34;;;;;;;32.95;13.02;;;1.20;99.90;;;;;;5026878;28;20037;-77
2023/03/10 11:34:21;;;;;;;29.38;11.90;;;1.20;99.90;;;;;;5027886;28;20080;-77
2023/03/10 11:37:23;;;;;;;31.37;12.10;;;1.20;99.90;;;;;;5011280;28;20487;-76
2023/03/10 11:40:20;;;;;;;29.90;11.68;;;1.20;99.90;;;;;;5011107;28;20175;-76
2023/03/10 11:42:47;;;;;;;32.03;11.82;;;1.30;99.90;;;;;;5033265;28;20181;-77
2023/03/10 11:45:19;;;;;;;29.95;11.68;;;1.20;99.90;;;;;;5028501;28;20397;-76
2023/03/10 11:48:16;;;;;;;28.13;12.15;;;1.20;99.90;;;;;;5011258;28;20571;-76
2023/03/10 11:50:52;;;;;;;29.53;12.67;;;1.20;99.90;;;;;;5026667;28;20045;-76
2023/03/10 11:53:44;;;;;;;27.55;11.45;;;1.20;99.90;;;;;;5009813;28;20409;-75
2023/03/10 11:56:13;;;;;;;30.70;12.68;;;1.20;99.90;;;;;;5028417;28;20048;-79
2023/03/10 11:58:47;;;;;;;28.63;11.57;;;1.20;99.90;;;;;;5009868;28;20063;-75
2023/03/10 12:01:17;;;;;;;29.55;11.40;;;1.20;99.90;;;;;;5029910;28;20493;-78
2023/03/10 12:04:05;;;;;;;30.88;12.48;;;1.20;99.90;;;;;;5025521;28;20034;-76
2023/03/10 12:06:46;;;;;;;33.13;14.10;;;1.20;99.90;;;;;;5012032;28;20394;-77
2023/03/10 12:09:41;;;;;;;32.75;11.77;;;1.20;99.90;;;;;;5028933;28;20037;-75
2023/03/10 12:12:13;;;;;;;29.35;11.73;;;1.20;99.90;;;;;;5016577;28;20058;-75
2023/03/10 12:14:40;;;;;;;29.27;12.65;;;1.30;99.90;;;;;;5030525;28;20041;-77
2023/03/10 12:17:10;;;;;;;28.60;11.93;;;1.30;99.90;;;;;;5016208;28;20055;-77
2023/03/10 12:20:15;;;;;;;25.42;11.25;;;3.20;99.90;;;;;;5030142;28;20123;-77
2023/03/10 12:22:49;;;;;;;31.42;12.18;;;1.30;99.90;;;;;;5032844;28;20413;-76
2023/03/10 12:25:27;;;;;;;31.50;13.95;;;2.30;99.90;;;;;;5032665;28;20041;-76
2023/03/10 12:28:11;;;;;;;29.73;12.15;;;1.70;99.90;;;;;;5032685;28;20390;-77
2023/03/10 12:30:42;;;;;;;33.28;14.85;;;1.30;99.90;;;;;;5030150;28;20118;-77
2023/03/10 12:33:32;;;;;;;28.90;11.95;;;1.30;99.90;;;;;;5033022;28;20510;-77
2023/03/10 12:36:21;;;;;;;28.20;11.07;;;1.30;99.90;;;;;;5031321;28;20519;-76
2023/03/10 12:38:49;;;;;;;26.05;10.93;;;1.30;99.90;;;;;;5029598;28;20425;-76
2023/03/10 12:41:26;;;;;;;31.30;13.27;;;1.30;99.90;;;;;;5032741;28;20534;-77
2023/03/10 12:44:06;;;;;;;30.15;11.65;;;1.30;99.90;;;;;;5030524;28;20476;-76
2023/03/10 12:46:39;;;;;;;27.83;10.93;;;1.30;99.90;;;;;;5013160;28;20044;-75
2023/03/10 12:49:20;;;;;;;29.20;12.45;;;1.30;99.90;;;;;;5031395;28;20497;-75
2023/03/10 12:51:52;;;;;;;26.23;11.48;;;1.30;99.90;;;;;;5014078;28;20148;-76
2023/03/10 12:54:39;;;;;;;28.98;11.25;;;1.20;99.90;;;;;;5034091;28;20064;-74
2023/03/10 12:57:23;;;;;;;27.60;12.52;;;1.30;99.90;;;;;;5031250;28;20358;-76